Terminal Aerodrome Forecast
Issued by NWS Sioux Falls, SD

Home | Current Version | Previous Version | Text Only | Print | Product List | Glossary On
Versions: 1 2 3 4 5 6 7 8 9 10 11 12 13
701
FTUS43 KFSD 181947 AAA
TAFFSD
TAF AMD
KFSD 181947Z 1820/1918 31012G17KT P6SM SCT015 OVC050
     FM182300 34008KT P6SM SCT020 OVC050
     FM190800 34006KT P6SM SCT200=

USA.gov is the U.S. government's official web portal to all federal, state and local government web resources and services.